Time;durP1;ratioP1;P1;durP2;ratioP2;P2;SDS_P1;SDS_P2;PMS_P1;PMS_P2;Temp;Humidity;BMP_temperature;BMP_pressure;BME280_temperature;BME280_humidity;BME280_pressure;Samples;Min_cycle;Max_cycle;Signal;HPM_P1;HPM_P2
2023/08/02 00:01:00;;;;;;;0.65;0.63;;;;;;;19.37;93.65;99199.88;4960979;28;20114;-60
2023/08/02 00:03:26;;;;;;;1.48;0.70;;;;;;;19.23;93.98;99208.59;4963169;28;20114;-60
2023/08/02 00:05:56;;;;;;;0.50;0.50;;;;;;;19.25;93.74;99205.41;4986725;28;20032;-59
2023/08/02 00:08:23;;;;;;;0.40;0.40;;;;;;;19.21;94.48;99211.00;4958964;28;20042;-59
2023/08/02 00:10:49;;;;;;;0.73;0.73;;;;;;;19.16;95.43;99213.56;4961086;28;20027;-59
2023/08/02 00:13:14;;;;;;;0.95;0.60;;;;;;;19.16;94.97;99210.81;4960714;28;20089;-59
2023/08/02 00:15:40;;;;;;;0.70;0.50;;;;;;;19.07;95.91;99208.81;4967525;28;20114;-60
2023/08/02 00:18:06;;;;;;;0.75;0.57;;;;;;;19.13;96.05;99215.19;4989417;28;20040;-60
2023/08/02 00:20:32;;;;;;;0.60;0.60;;;;;;;19.12;96.32;99207.47;4967331;28;20653;-58
2023/08/02 00:22:57;;;;;;;0.50;0.47;;;;;;;19.14;95.65;99216.75;4964229;28;20027;-60
2023/08/02 00:25:24;;;;;;;0.60;0.60;;;;;;;19.07;96.32;99208.81;4961162;28;20051;-59
2023/08/02 00:27:49;;;;;;;0.57;0.47;;;;;;;19.04;96.91;99212.44;4963051;28;20535;-60
2023/08/02 00:30:15;;;;;;;0.65;0.65;;;;;;;19.08;96.94;99207.59;5033307;28;20031;-59
2023/08/02 00:32:45;;;;;;;0.77;0.50;;;;;;;19.20;95.92;99211.44;5000109;28;20117;-60
2023/08/02 00:35:10;;;;;;;1.02;0.50;;;;;;;19.00;96.46;99208.31;4963183;28;20030;-60
2023/08/02 00:37:36;;;;;;;0.60;0.52;;;;;;;18.99;96.99;99202.09;4966437;28;20451;-60
2023/08/02 00:40:02;;;;;;;1.20;0.60;;;;;;;19.11;96.48;99214.88;4964648;28;20098;-58
2023/08/02 00:42:28;;;;;;;1.17;0.80;;;;;;;19.00;96.98;99197.38;5026843;28;20032;-60
2023/08/02 00:44:54;;;;;;;1.00;0.82;;;;;;;18.94;97.43;99210.84;4963161;28;20035;-60
2023/08/02 00:47:19;;;;;;;1.17;0.60;;;;;;;18.94;97.28;99205.41;5024713;28;20024;-59
2023/08/02 00:49:45;;;;;;;0.60;0.60;;;;;;;19.02;97.37;99205.91;5034167;28;20046;-58
2023/08/02 00:52:11;;;;;;;3.28;0.90;;;;;;;19.02;97.20;99201.22;5011269;28;20529;-60
2023/08/02 00:54:38;;;;;;;0.73;0.57;;;;;;;19.10;96.50;99212.59;5021890;28;20482;-58
2023/08/02 00:57:04;;;;;;;0.65;0.65;;;;;;;19.00;97.16;99200.88;4961599;28;20745;-59
2023/08/02 00:59:29;;;;;;;0.85;0.75;;;;;;;18.93;97.67;99214.78;5033853;28;20028;-60
2023/08/02 01:01:55;;;;;;;0.75;0.70;;;;;;;19.03;97.34;99210.91;4958351;28;20031;-60
2023/08/02 01:04:21;;;;;;;0.95;0.75;;;;;;;19.05;97.29;99203.03;5032959;28;20064;-59
2023/08/02 01:07:09;;;;;;;0.40;0.40;;;;;;;19.05;96.83;99200.28;4968522;28;20042;-60
2023/08/02 01:09:46;;;;;;;0.60;0.52;;;;;;;19.02;97.03;99209.38;4999731;28;20073;-60
2023/08/02 01:12:15;;;;;;;1.33;0.88;;;;;;;19.01;96.98;99215.31;4980496;28;20029;-60
2023/08/02 01:14:43;;;;;;;1.00;0.70;;;;;;;19.00;97.51;99202.84;5021417;28;20563;-59
2023/08/02 01:17:11;;;;;;;1.00;0.80;;;;;;;19.10;96.84;99205.19;5034637;28;20043;-60
2023/08/02 01:19:37;;;;;;;1.08;0.90;;;;;;;19.08;96.45;99213.06;5030336;28;20046;-57
2023/08/02 01:22:03;;;;;;;0.75;0.68;;;;;;;19.11;96.35;99205.94;5034463;28;20026;-61
2023/08/02 01:24:34;;;;;;;1.52;0.95;;;;;;;19.05;96.30;99203.03;5028262;28;20046;-60
2023/08/02 01:27:08;;;;;;;4.68;0.70;;;;;;;19.00;97.07;99203.63;5028958;28;20487;-60
2023/08/02 01:29:37;;;;;;;4.13;0.88;;;;;;;19.02;96.77;99200.44;4961861;28;20039;-60
2023/08/02 01:32:05;;;;;;;1.88;0.65;;;;;;;19.02;96.30;99200.44;4964283;28;20037;-60
2023/08/02 01:34:31;;;;;;;0.80;0.80;;;;;;;19.06;96.64;99190.91;4963965;28;20027;-61
2023/08/02 01:36:56;;;;;;;1.10;0.75;;;;;;;19.03;96.78;99191.06;5026160;28;20134;-60
2023/08/02 01:39:22;;;;;;;1.52;0.98;;;;;;;18.98;97.04;99195.13;4964361;28;20098;-60
2023/08/02 01:41:47;;;;;;;1.08;0.95;;;;;;;19.10;96.46;99197.00;4961332;28;20043;-60
2023/08/02 01:44:13;;;;;;;2.20;1.00;;;;;;;19.01;96.64;99188.75;4961500;28;20039;-60
2023/08/02 01:46:38;;;;;;;1.48;0.98;;;;;;;19.10;96.43;99188.81;4960831;28;20027;-60
2023/08/02 01:49:03;;;;;;;1.67;1.08;;;;;;;19.03;96.69;99191.06;5034266;28;20098;-60
2023/08/02 01:51:29;;;;;;;0.73;0.73;;;;;;;18.96;96.84;99191.31;5031287;28;20035;-59
2023/08/02 01:53:54;;;;;;;1.65;0.90;;;;;;;18.99;96.62;99182.25;4961274;28;20049;-61
2023/08/02 01:56:20;;;;;;;1.10;0.73;;;;;;;19.00;96.60;99183.75;4962138;28;20027;-58
2023/08/02 01:58:45;;;;;;;1.38;0.90;;;;;;;19.01;96.38;99182.56;4967129;28;20033;-58
2023/08/02 02:01:11;;;;;;;6.90;1.38;;;;;;;18.99;96.91;99184.97;5031568;28;20038;-60
2023/08/02 02:03:37;;;;;;;1.60;0.90;;;;;;;19.06;96.07;99180.00;5026019;28;20510;-60
2023/08/02 02:06:02;;;;;;;1.85;1.08;;;;;;;19.04;96.12;99181.66;5028892;28;20063;-60
2023/08/02 02:08:28;;;;;;;2.35;0.80;;;;;;;19.07;95.71;99180.75;4958582;28;20058;-59
2023/08/02 02:10:54;;;;;;;2.10;1.13;;;;;;;19.05;95.85;99173.00;4960691;28;20124;-60
2023/08/02 02:13:24;;;;;;;1.13;1.02;;;;;;;18.82;96.99;99177.00;4965948;28;20061;-60
2023/08/02 02:15:49;;;;;;;4.25;1.40;;;;;;;18.83;97.02;99178.50;4959398;28;20032;-60
2023/08/02 02:18:15;;;;;;;1.83;1.02;;;;;;;18.84;97.30;99173.81;5000127;28;20033;-60
2023/08/02 02:20:41;;;;;;;1.48;1.30;;;;;;;18.84;97.26;99171.84;5026629;28;20463;-60
2023/08/02 02:23:06;;;;;;;1.92;0.95;;;;;;;18.87;97.20;99167.47;4960972;28;20031;-59
2023/08/02 02:25:32;;;;;;;1.40;0.98;;;;;;;18.92;97.16;99173.09;4967418;28;20058;-59
2023/08/02 02:27:57;;;;;;;1.73;1.20;;;;;;;18.94;97.03;99172.66;5030202;28;20062;-60
2023/08/02 02:30:25;;;;;;;1.60;1.23;;;;;;;18.96;96.55;99164.00;4958707;28;20109;-61
2023/08/02 02:32:52;;;;;;;2.13;1.10;;;;;;;18.87;96.58;99162.03;5020163;28;20122;-58
2023/08/02 02:35:18;;;;;;;3.08;0.90;;;;;;;18.86;97.29;99174.91;4967187;28;20035;-57
2023/08/02 02:38:03;;;;;;;2.45;1.20;;;;;;;18.74;98.20;99172.22;4967547;28;20088;-60
2023/08/02 02:40:29;;;;;;;0.77;0.70;;;;;;;18.80;98.16;99173.19;4952852;28;20185;-59
2023/08/02 02:42:54;;;;;;;2.42;1.10;;;;;;;18.88;97.57;99168.97;4956022;28;20429;-58
2023/08/02 02:45:20;;;;;;;1.45;1.00;;;;;;;18.84;97.39;99168.34;4968629;28;20054;-58
2023/08/02 02:47:46;;;;;;;0.93;0.70;;;;;;;18.94;97.03;99169.94;4958532;28;20034;-60
2023/08/02 02:50:12;;;;;;;0.98;0.88;;;;;;;18.82;97.85;99166.06;4988997;28;20096;-58
2023/08/02 02:52:37;;;;;;;1.73;0.80;;;;;;;18.75;98.50;99154.66;4968553;28;20417;-60
2023/08/02 02:55:03;;;;;;;1.75;0.85;;;;;;;18.75;98.77;99162.84;4951149;28;20042;-59
2023/08/02 02:57:28;;;;;;;1.05;0.75;;;;;;;18.84;98.33;99168.34;4983483;28;20042;-58
2023/08/02 02:59:55;;;;;;;0.70;0.70;;;;;;;18.85;98.41;99158.97;4968306;28;20174;-59
2023/08/02 03:02:20;;;;;;;0.82;0.70;;;;;;;18.92;97.64;99169.63;4979049;28;20046;-58
2023/08/02 03:04:46;;;;;;;0.73;0.68;;;;;;;18.96;97.61;99166.75;4967859;28;20044;-60
2023/08/02 03:07:11;;;;;;;1.35;0.98;;;;;;;18.88;97.56;99166.25;4968289;28;20058;-60
2023/08/02 03:09:37;;;;;;;0.85;0.73;;;;;;;18.95;97.21;99167.97;4967219;28;20038;-59
2023/08/02 03:12:02;;;;;;;1.98;0.80;;;;;;;18.87;97.78;99168.22;4967365;28;20070;-60
2023/08/02 03:14:27;;;;;;;0.93;0.75;;;;;;;18.98;97.12;99178.75;4966749;28;20517;-58
2023/08/02 03:16:53;;;;;;;0.93;0.88;;;;;;;18.91;97.56;99170.84;4961674;28;20054;-59
2023/08/02 03:19:18;;;;;;;1.60;1.00;;;;;;;18.85;98.24;99173.34;4961138;28;20019;-59
2023/08/02 03:21:44;;;;;;;1.42;1.00;;;;;;;18.86;98.04;99171.41;5028866;28;20042;-59
2023/08/02 03:24:09;;;;;;;1.35;1.00;;;;;;;18.79;98.52;99169.69;4966589;28;20043;-58
2023/08/02 03:26:35;;;;;;;2.30;1.35;;;;;;;18.82;98.60;99170.75;4967182;28;20026;-59
2023/08/02 03:29:00;;;;;;;1.10;0.85;;;;;;;18.78;99.08;99167.41;4960028;28;20035;-60
2023/08/02 03:31:26;;;;;;;1.15;0.95;;;;;;;18.78;98.71;99172.88;4967750;28;20405;-59
2023/08/02 03:33:51;;;;;;;1.10;0.90;;;;;;;18.80;98.80;99170.44;4930685;28;1092744;-60
2023/08/02 03:36:17;;;;;;;1.05;0.85;;;;;;;18.75;99.49;99157.41;4968791;28;20035;-59
2023/08/02 03:38:42;;;;;;;2.72;0.75;;;;;;;18.76;99.06;99173.31;4965390;28;20042;-58
2023/08/02 03:41:08;;;;;;;2.60;1.10;;;;;;;18.78;99.03;99165.44;4958109;28;20615;-60
2023/08/02 03:43:33;;;;;;;4.00;1.10;;;;;;;18.72;99.85;99169.19;4966960;28;20034;-57
2023/08/02 03:45:59;;;;;;;1.20;1.10;;;;;;;18.69;99.58;99170.84;4953601;28;20046;-60
2023/08/02 03:48:28;;;;;;;2.38;1.48;;;;;;;18.70;100.00;99163.41;4961708;28;20035;-60
2023/08/02 03:50:54;;;;;;;5.32;1.80;;;;;;;18.80;99.53;99170.44;5028550;28;20034;-58
2023/08/02 03:53:19;;;;;;;2.13;1.23;;;;;;;18.72;99.84;99174.66;4968532;28;20129;-60
2023/08/02 03:55:45;;;;;;;2.13;1.40;;;;;;;18.73;100.00;99176.19;4954541;28;20106;-60
2023/08/02 03:58:10;;;;;;;5.60;1.33;;;;;;;18.66;100.00;99162.81;5034806;28;20042;-60
2023/08/02 04:00:36;;;;;;;1.98;1.17;;;;;;;18.63;100.00;99180.06;5035263;28;20027;-60
2023/08/02 04:03:01;;;;;;;3.63;1.30;;;;;;;18.74;100.00;99175.72;4953979;28;20469;-59
2023/08/02 04:05:27;;;;;;;3.20;1.90;;;;;;;18.66;100.00;99173.72;4961382;28;20058;-60
2023/08/02 04:07:52;;;;;;;2.38;1.40;;;;;;;18.76;100.00;99165.13;4968299;28;20053;-59
2023/08/02 04:10:18;;;;;;;3.15;2.17;;;;;;;18.73;100.00;99168.00;4966751;28;20081;-58
2023/08/02 04:12:43;;;;;;;1.85;1.15;;;;;;;18.65;100.00;99178.41;4959241;28;20077;-60
2023/08/02 04:15:29;;;;;;;3.28;1.52;;;;;;;18.73;100.00;99174.22;4967489;28;20101;-59
2023/08/02 04:17:55;;;;;;;1.45;1.25;;;;;;;18.65;100.00;99183.88;4970936;28;20543;-60
2023/08/02 04:20:20;;;;;;;3.08;1.73;;;;;;;18.69;100.00;99172.81;4987291;28;20058;-61
2023/08/02 04:22:47;;;;;;;2.00;1.30;;;;;;;18.65;100.00;99166.72;4979899;28;20080;-59
2023/08/02 04:25:12;;;;;;;2.35;1.50;;;;;;;18.78;100.00;99178.31;4988328;28;20069;-60
2023/08/02 04:27:41;;;;;;;2.05;1.30;;;;;;;18.76;100.00;99178.00;4906076;28;20595;-60
2023/08/02 04:30:07;;;;;;;3.00;1.70;;;;;;;18.67;100.00;99180.69;4991130;28;20098;-60
2023/08/02 04:32:33;;;;;;;2.78;1.63;;;;;;;18.74;100.00;99180.41;4908952;28;20429;-60
2023/08/02 04:34:58;;;;;;;2.15;1.42;;;;;;;18.70;100.00;99169.63;4990743;28;20053;-60
2023/08/02 04:37:24;;;;;;;2.13;1.27;;;;;;;18.65;100.00;99178.41;4990590;28;20652;-60
2023/08/02 04:39:49;;;;;;;1.90;1.35;;;;;;;18.72;100.00;99169.19;4989577;28;20046;-60
2023/08/02 04:42:17;;;;;;;2.40;1.90;;;;;;;18.72;100.00;99178.13;4979991;28;20057;-60
2023/08/02 04:44:42;;;;;;;1.88;1.50;;;;;;;18.72;100.00;99174.66;4969789;28;20453;-60
2023/08/02 04:47:08;;;;;;;2.50;1.67;;;;;;;18.61;100.00;99177.78;4988790;28;20071;-58
2023/08/02 04:49:35;;;;;;;1.98;1.60;;;;;;;18.65;100.00;99172.19;4908871;28;20096;-60
2023/08/02 04:52:01;;;;;;;1.63;1.02;;;;;;;18.63;100.00;99169.13;4998866;28;20045;-60
2023/08/02 04:54:26;;;;;;;1.77;1.20;;;;;;;18.64;100.00;99165.22;4979528;28;20393;-60
2023/08/02 04:56:52;;;;;;;2.63;1.40;;;;;;;18.61;100.00;99171.56;4967405;28;20490;-60
2023/08/02 04:59:17;;;;;;;1.95;1.38;;;;;;;18.72;100.00;99177.38;4956051;28;20018;-60
2023/08/02 05:01:42;;;;;;;2.42;1.50;;;;;;;18.71;100.00;99184.03;4958519;28;20100;-60
2023/08/02 05:04:08;;;;;;;1.85;1.30;;;;;;;18.74;100.00;99180.41;4971104;28;20049;-60
2023/08/02 05:06:34;;;;;;;2.40;1.50;;;;;;;18.73;100.00;99174.22;5028764;28;20024;-60
2023/08/02 05:09:04;;;;;;;3.13;1.70;;;;;;;18.74;100.00;99175.72;4961786;28;20042;-60
2023/08/02 05:11:50;;;;;;;4.15;1.45;;;;;;;18.72;100.00;99178.13;4986880;28;20114;-60
2023/08/02 05:14:15;;;;;;;1.80;1.20;;;;;;;18.79;100.00;99179.84;4954543;28;20049;-59
2023/08/02 05:16:40;;;;;;;2.13;1.38;;;;;;;18.85;100.00;99175.34;4970734;28;20031;-60
2023/08/02 05:19:26;;;;;;;2.03;1.45;;;;;;;18.87;100.00;99183.84;4971511;28;20409;-59
2023/08/02 05:21:52;;;;;;;4.68;1.35;;;;;;;18.94;100.00;99180.84;4942314;29;20200;-59
2023/08/02 05:24:17;;;;;;;3.70;1.65;;;;;;;18.97;100.00;99188.13;4927124;29;20036;-60
2023/08/02 05:26:43;;;;;;;2.15;1.33;;;;;;;19.04;100.00;99184.38;4916693;29;20060;-58
2023/08/02 05:29:08;;;;;;;3.30;1.80;;;;;;;19.14;100.00;99178.53;4944134;29;20126;-58
2023/08/02 05:31:34;;;;;;;3.20;1.50;;;;;;;19.12;100.00;99180.94;4943919;29;20098;-58
2023/08/02 05:33:59;;;;;;;1.83;1.33;;;;;;;19.12;100.00;99177.44;4980514;22;20063;-64
2023/08/02 05:36:24;;;;;;;3.05;1.73;;;;;;;19.18;100.00;99170.19;5052267;28;20047;-65
2023/08/02 05:38:50;;;;;;;2.03;1.55;;;;;;;19.14;100.00;99170.34;5068815;28;20115;-64
2023/08/02 05:41:15;;;;;;;3.10;1.63;;;;;;;19.17;100.00;99163.19;5044401;28;20554;-65
2023/08/02 05:43:44;;;;;;;3.67;1.70;;;;;;;19.16;100.00;99151.53;5038247;28;20787;-64
2023/08/02 05:46:10;;;;;;;1.85;1.30;;;;;;;19.18;100.00;99153.81;5041851;28;20113;-64
2023/08/02 05:48:36;;;;;;;2.78;1.67;;;;;;;19.30;100.00;99156.41;5047541;28;20060;-63
2023/08/02 05:51:01;;;;;;;2.58;1.80;;;;;;;19.62;100.00;99157.91;5037125;28;20546;-64
2023/08/02 05:53:27;;;;;;;3.60;1.92;;;;;;;19.67;100.00;99160.03;5045006;28;20092;-65
2023/08/02 05:55:54;;;;;;;2.83;1.77;;;;;;;19.62;100.00;99153.22;5048640;28;20043;-64
2023/08/02 05:58:20;;;;;;;1.90;1.42;;;;;;;19.66;100.00;99147.59;5047672;28;20063;-64
2023/08/02 06:00:45;;;;;;;3.75;2.03;;;;;;;19.60;100.00;99147.44;5046232;28;20119;-64
2023/08/02 06:03:10;;;;;;;3.60;1.95;;;;;;;19.60;100.00;99141.97;5048778;28;20025;-64
2023/08/02 06:05:36;;;;;;;2.33;1.83;;;;;;;19.50;100.00;99142.41;5046101;28;20403;-63
2023/08/02 06:08:02;;;;;;;2.00;1.55;;;;;;;19.49;100.00;99151.81;5037033;28;20048;-66
2023/08/02 06:10:27;;;;;;;3.47;1.73;;;;;;;19.50;100.00;99156.06;5041533;28;20029;-64
2023/08/02 06:12:53;;;;;;;3.70;2.15;;;;;;;19.59;100.00;99156.84;5050250;28;20361;-64
2023/08/02 06:15:18;;;;;;;4.88;1.90;;;;;;;19.63;100.00;99154.72;5046564;28;20033;-64
2023/08/02 06:17:44;;;;;;;3.83;1.73;;;;;;;19.55;100.00;99158.94;5049935;28;20044;-65
2023/08/02 06:20:10;;;;;;;3.83;1.90;;;;;;;19.57;100.00;99153.78;5050458;28;20044;-63
2023/08/02 06:22:35;;;;;;;2.50;1.48;;;;;;;19.53;100.00;99149.72;5041963;28;20025;-64
2023/08/02 06:25:01;;;;;;;2.95;2.10;;;;;;;19.66;100.00;99156.56;5049474;28;20036;-65
2023/08/02 06:27:26;;;;;;;2.45;1.30;;;;;;;19.79;100.00;99159.91;5042798;28;20106;-66
2023/08/02 06:29:51;;;;;;;2.88;1.73;;;;;;;20.00;98.60;99157.50;5048016;28;20631;-65
2023/08/02 06:32:17;;;;;;;1.70;1.02;;;;;;;19.85;99.00;99156.56;5043040;28;20017;-65
2023/08/02 06:35:03;;;;;;;3.13;1.80;;;;;;;19.77;99.30;99156.88;4997358;28;20035;-65
2023/08/02 06:37:28;;;;;;;2.15;1.58;;;;;;;19.87;99.88;99149.44;4989795;28;20543;-64
2023/08/02 06:39:54;;;;;;;4.82;2.00;;;;;;;20.32;98.96;99152.22;4987022;28;20176;-63
2023/08/02 06:42:19;;;;;;;2.38;1.65;;;;;;;20.53;98.54;99147.78;4995361;28;20394;-65
2023/08/02 06:44:45;;;;;;;2.97;1.60;;;;;;;20.50;98.55;99151.41;5001588;28;20540;-66
2023/08/02 06:47:10;;;;;;;8.95;1.88;;;;;;;20.61;97.92;99143.50;4993055;28;20097;-64
2023/08/02 06:49:36;;;;;;;2.67;1.67;;;;;;;20.53;97.70;99147.78;5004634;28;20033;-64
2023/08/02 06:52:02;;;;;;;3.90;2.45;;;;;;;20.53;97.73;99137.59;5002646;28;20056;-66
2023/08/02 06:54:27;;;;;;;4.95;1.65;;;;;;;20.60;97.64;99125.56;5004686;28;20152;-66
2023/08/02 06:56:53;;;;;;;3.50;1.58;;;;;;;20.83;97.77;99135.09;5001696;28;20477;-64
2023/08/02 06:59:19;;;;;;;1.30;1.15;;;;;;;20.96;97.45;99141.13;5000502;28;20044;-63
2023/08/02 07:01:46;;;;;;;2.40;1.02;;;;;;;21.15;94.78;99139.84;5004159;28;20054;-64
2023/08/02 07:04:11;;;;;;;2.60;1.63;;;;;;;21.14;95.26;99141.84;4995799;28;20064;-63
2023/08/02 07:06:36;;;;;;;7.63;1.13;;;;;;;20.89;94.05;99147.69;5003704;28;20049;-64
2023/08/02 07:09:02;;;;;;;1.33;1.00;;;;;;;20.97;93.88;99140.66;4981792;28;20045;-65
2023/08/02 07:11:28;;;;;;;1.88;1.30;;;;;;;20.91;94.81;99137.03;4997372;28;20033;-65
2023/08/02 07:13:53;;;;;;;1.25;0.95;;;;;;;21.08;93.33;99130.00;4996419;28;20135;-64
2023/08/02 07:16:19;;;;;;;2.47;1.33;;;;;;;21.29;93.64;99134.44;4952986;28;20027;-65
2023/08/02 07:18:44;;;;;;;0.90;0.50;;;;;;;21.45;92.86;99130.56;4952799;28;20038;-65
2023/08/02 07:21:10;;;;;;;2.60;1.55;;;;;;;21.77;92.61;99129.00;4967449;28;20445;-65
2023/08/02 07:23:36;;;;;;;1.25;0.98;;;;;;;22.07;91.97;99120.41;4959126;28;20042;-64
2023/08/02 07:26:03;;;;;;;2.70;1.08;;;;;;;22.29;89.94;99120.81;4966852;28;20103;-65
2023/08/02 07:28:28;;;;;;;3.00;1.02;;;;;;;21.92;84.81;99110.63;4967860;28;20092;-64
2023/08/02 07:31:05;;;;;;;1.38;0.90;;;;;;;22.16;85.49;99114.81;4966275;28;20039;-62
2023/08/02 07:33:30;;;;;;;3.20;1.20;;;;;;;22.35;85.14;99113.44;4955565;28;20038;-63
2023/08/02 07:35:55;;;;;;;2.22;1.05;;;;;;;22.26;82.60;99102.53;4965813;28;20019;-64
2023/08/02 07:38:21;;;;;;;1.60;1.13;;;;;;;22.05;82.08;99095.44;4968427;28;20042;-64
2023/08/02 07:40:46;;;;;;;1.73;1.05;;;;;;;22.04;83.76;99101.38;4968388;28;20100;-64
2023/08/02 07:43:13;;;;;;;1.10;1.00;;;;;;;22.22;84.98;99106.72;4952232;28;20093;-64
2023/08/02 07:45:38;;;;;;;2.28;1.33;;;;;;;22.24;84.86;99104.28;4958437;28;20469;-63
2023/08/02 07:48:04;;;;;;;1.58;1.13;;;;;;;22.22;82.82;99099.22;4968607;28;20140;-63
2023/08/02 07:50:29;;;;;;;4.18;1.27;;;;;;;21.94;83.70;99089.75;4968776;28;20380;-64
2023/08/02 07:52:55;;;;;;;1.83;0.90;;;;;;;21.97;82.93;99093.53;4956739;28;20039;-63
2023/08/02 07:55:20;;;;;;;1.67;0.80;;;;;;;21.81;83.81;99088.47;4963559;28;20122;-63
2023/08/02 07:57:46;;;;;;;2.03;1.00;;;;;;;21.62;85.80;99076.13;5027037;28;20034;-63
2023/08/02 08:00:12;;;;;;;1.65;0.93;;;;;;;21.66;85.84;99080.19;4959578;28;20041;-66
2023/08/02 08:02:38;;;;;;;5.03;0.95;;;;;;;21.68;87.15;99072.25;4951460;28;20537;-66
2023/08/02 08:05:04;;;;;;;2.55;1.10;;;;;;;21.84;87.86;99082.06;5035604;28;20034;-64
2023/08/02 08:07:30;;;;;;;2.08;1.30;;;;;;;22.07;87.66;99081.25;5031266;28;20039;-64
2023/08/02 08:09:55;;;;;;;1.27;0.88;;;;;;;22.21;86.21;99086.00;4953421;28;20039;-64
2023/08/02 08:12:21;;;;;;;2.38;0.98;;;;;;;22.22;86.29;99088.25;4957799;28;20156;-63
2023/08/02 08:14:46;;;;;;;1.35;0.80;;;;;;;22.26;83.22;99088.09;4961096;28;20045;-63
2023/08/02 08:17:12;;;;;;;4.30;0.80;;;;;;;21.92;82.57;99086.72;4971725;28;20031;-66
2023/08/02 08:19:37;;;;;;;1.17;0.68;;;;;;;21.77;82.81;99074.94;4971497;28;20496;-64
2023/08/02 08:22:04;;;;;;;7.57;0.68;;;;;;;21.89;82.72;99075.94;4968470;28;20047;-63
2023/08/02 08:24:29;;;;;;;1.33;0.80;;;;;;;21.73;82.36;99071.63;5034934;28;20030;-63
2023/08/02 08:26:55;;;;;;;3.95;0.88;;;;;;;21.97;82.12;99060.63;4958030;28;20461;-63
2023/08/02 08:29:21;;;;;;;2.25;0.73;;;;;;;22.10;81.02;99061.13;4955718;28;20401;-63
2023/08/02 08:31:46;;;;;;;1.08;0.80;;;;;;;22.18;80.66;99056.78;4952827;28;20118;-66
2023/08/02 08:34:13;;;;;;;1.48;0.80;;;;;;;22.08;82.59;99049.84;4966211;28;20043;-64
2023/08/02 08:36:39;;;;;;;2.03;0.98;;;;;;;22.28;82.91;99055.44;5018214;28;20101;-63
2023/08/02 08:39:05;;;;;;;1.23;1.00;;;;;;;22.51;82.54;99056.56;4966947;28;20046;-64
2023/08/02 08:41:30;;;;;;;1.67;1.25;;;;;;;22.68;83.72;99061.13;4969808;28;20031;-63
2023/08/02 08:44:16;;;;;;;1.17;0.85;;;;;;;23.01;82.20;99058.13;4970509;28;20022;-63
2023/08/02 08:46:43;;;;;;;2.58;0.80;;;;;;;23.10;78.64;99068.97;4959927;28;20058;-65
2023/08/02 08:49:08;;;;;;;4.55;0.68;;;;;;;22.63;78.55;99056.28;4965530;28;20057;-63
2023/08/02 08:51:39;;;;;;;1.95;0.70;;;;;;;23.02;79.74;99045.88;4971697;28;20486;-61
2023/08/02 08:54:08;;;;;;;1.35;0.85;;;;;;;22.88;77.78;99058.41;4969969;28;20158;-63
2023/08/02 08:56:38;;;;;;;1.52;0.90;;;;;;;23.14;75.64;99055.78;4963156;28;20035;-65
2023/08/02 08:59:04;;;;;;;1.63;1.07;;;;;;;23.60;74.44;99051.16;4968640;28;20078;-62
2023/08/02 09:01:30;;;;;;;0.98;0.80;;;;;;;23.63;73.00;99047.47;4968270;28;20321;-64
2023/08/02 09:03:56;;;;;;;0.98;0.50;;;;;;;23.47;73.90;99045.25;4969716;28;20422;-66
2023/08/02 09:06:23;;;;;;;2.28;0.68;;;;;;;23.55;72.11;99027.13;4971657;28;20050;-66
2023/08/02 09:08:49;;;;;;;1.65;0.85;;;;;;;23.63;71.53;99019.19;4951720;28;20053;-62
2023/08/02 09:11:17;;;;;;;4.22;0.77;;;;;;;23.27;70.81;99015.75;4964551;28;20051;-63
2023/08/02 09:13:43;;;;;;;1.50;0.63;;;;;;;23.49;69.10;99012.56;4945250;28;20063;-64
2023/08/02 09:16:11;;;;;;;2.20;1.27;;;;;;;23.47;72.03;99006.78;4947061;28;20062;-64
2023/08/02 09:18:45;;;;;;;2.13;0.98;;;;;;;23.36;72.77;99003.91;4970658;28;20117;-65
2023/08/02 09:21:22;;;;;;;0.47;0.40;;;;;;;23.67;73.83;98997.75;4966172;28;20047;-66
2023/08/02 09:24:00;;;;;;;1.08;0.90;;;;;;;23.76;73.72;99003.09;4958687;28;20133;-62
2023/08/02 09:26:26;;;;;;;4.53;0.90;;;;;;;23.85;69.88;98995.44;5048317;28;20031;-62
2023/08/02 09:29:01;;;;;;;5.07;0.90;;;;;;;23.87;69.88;99003.94;4960716;28;21218;-63
2023/08/02 09:31:28;;;;;;;2.15;0.70;;;;;;;23.78;66.71;99015.13;4967102;28;20035;-66
2023/08/02 09:33:54;;;;;;;0.95;0.75;;;;;;;23.63;68.81;98997.97;5028080;28;20080;-64
2023/08/02 09:36:34;;;;;;;1.50;0.73;;;;;;;23.35;70.86;98990.63;4968227;28;20404;-64
2023/08/02 09:39:20;;;;;;;0.70;0.60;;;;;;;23.54;71.04;98978.13;4958386;28;20031;-63
2023/08/02 09:41:45;;;;;;;0.70;0.70;;;;;;;23.54;68.20;98978.13;4948212;28;20055;-64
2023/08/02 09:44:21;;;;;;;1.35;0.68;;;;;;;23.38;69.64;98973.19;4955529;28;20023;-66
2023/08/02 09:46:46;;;;;;;2.28;1.00;;;;;;;22.98;70.66;98971.16;4964926;28;20031;-63
2023/08/02 09:49:20;;;;;;;1.77;0.60;;;;;;;22.92;71.53;98968.34;5031461;28;20031;-65
2023/08/02 09:51:46;;;;;;;1.55;0.82;;;;;;;22.97;69.66;98966.91;5023972;28;20050;-64
2023/08/02 09:54:13;;;;;;;1.67;0.77;;;;;;;22.90;72.63;98953.59;4961808;28;20038;-66
2023/08/02 09:56:41;;;;;;;0.90;0.80;;;;;;;22.53;72.39;98950.56;4956292;28;20058;-63
2023/08/02 09:59:07;;;;;;;1.27;1.13;;;;;;;22.92;71.41;98943.63;4947788;28;20745;-66
2023/08/02 10:01:35;;;;;;;1.55;0.73;;;;;;;22.97;71.94;98945.72;5013361;28;20043;-64
2023/08/02 10:04:06;;;;;;;1.55;0.80;;;;;;;22.91;71.90;98942.13;4951293;28;20034;-63
2023/08/02 10:06:54;;;;;;;2.25;1.05;;;;;;;23.06;71.59;98939.31;5011932;28;20059;-65
2023/08/02 10:09:23;;;;;;;1.83;0.75;;;;;;;22.57;72.08;98931.94;4993177;28;20046;-64
2023/08/02 10:11:51;;;;;;;2.05;0.80;;;;;;;22.84;72.17;98923.31;4995446;28;20053;-63
2023/08/02 10:14:18;;;;;;;2.55;0.75;;;;;;;23.02;71.88;98920.28;4990744;28;20046;-63
2023/08/02 10:16:45;;;;;;;1.35;0.90;;;;;;;23.16;71.76;98915.97;4991664;28;20120;-65
2023/08/02 10:19:13;;;;;;;1.50;0.85;;;;;;;23.27;72.48;98913.31;5001013;28;20538;-63
2023/08/02 10:21:39;;;;;;;1.05;0.73;;;;;;;23.16;72.25;98907.72;4996250;28;20374;-63
2023/08/02 10:24:06;;;;;;;3.35;1.00;;;;;;;23.26;72.12;98918.09;5000317;28;20046;-62
2023/08/02 10:26:32;;;;;;;1.35;1.08;;;;;;;22.94;71.98;98913.69;4995894;28;20077;-63
2023/08/02 10:28:59;;;;;;;3.17;0.80;;;;;;;22.68;73.21;98904.66;4994629;28;20419;-65
2023/08/02 10:31:26;;;;;;;2.38;0.98;;;;;;;22.80;73.59;98892.56;4997266;28;20030;-64
2023/08/02 10:33:51;;;;;;;2.67;1.42;;;;;;;22.79;73.63;98896.53;4987596;28;20244;-63
2023/08/02 10:36:17;;;;;;;0.80;0.80;;;;;;;23.03;73.63;98897.09;4991993;28;20108;-64
2023/08/02 10:38:42;;;;;;;1.40;0.77;;;;;;;22.87;74.65;98891.41;4991828;28;20034;-62
2023/08/02 10:41:12;;;;;;;1.88;0.98;;;;;;;22.80;72.57;98889.81;5005094;28;20582;-63
2023/08/02 10:44:00;;;;;;;2.72;0.93;;;;;;;22.92;72.44;98901.69;5004306;28;20042;-64
2023/08/02 10:46:28;;;;;;;1.70;0.90;;;;;;;22.74;72.38;98896.47;4982082;28;20407;-64
2023/08/02 10:49:13;;;;;;;1.20;0.65;;;;;;;22.73;71.19;98884.75;4948994;28;20110;-65
2023/08/02 10:51:39;;;;;;;1.25;0.82;;;;;;;22.64;72.69;98875.88;4964143;28;20521;-65
2023/08/02 10:54:18;;;;;;;0.80;0.77;;;;;;;22.71;73.14;98868.00;4951456;28;20097;-63
2023/08/02 10:56:53;;;;;;;5.75;0.90;;;;;;;22.85;74.24;98864.41;4946754;28;20118;-64
2023/08/02 10:59:24;;;;;;;6.75;0.80;;;;;;;22.84;73.33;98865.66;4948713;28;20118;-64
2023/08/02 11:02:01;;;;;;;1.75;0.98;;;;;;;22.99;73.98;98855.34;4955730;28;20552;-62
2023/08/02 11:04:28;;;;;;;1.25;0.68;;;;;;;23.12;73.97;98841.25;5022007;28;20770;-65
2023/08/02 11:06:54;;;;;;;1.95;0.60;;;;;;;23.15;73.40;98838.28;4944933;28;20113;-63
2023/08/02 11:09:32;;;;;;;1.20;0.60;;;;;;;23.16;72.77;98830.78;4951148;28;20039;-64
2023/08/02 11:12:11;;;;;;;1.48;0.70;;;;;;;22.98;72.67;98840.09;5025567;28;20882;-65
2023/08/02 11:14:38;;;;;;;2.50;0.90;;;;;;;22.72;72.18;98842.06;5030286;28;20050;-64
2023/08/02 11:17:04;;;;;;;0.95;0.60;;;;;;;22.84;72.58;98840.19;4948513;28;20032;-64
2023/08/02 11:19:33;;;;;;;1.40;0.88;;;;;;;23.02;73.48;98828.88;4957663;28;20039;-63
2023/08/02 11:21:59;;;;;;;1.15;0.77;;;;;;;23.08;73.80;98819.47;5026255;28;20505;-62
2023/08/02 11:24:25;;;;;;;3.00;0.80;;;;;;;23.28;71.93;98815.94;5026507;28;20030;-65
2023/08/02 11:26:59;;;;;;;1.70;0.90;;;;;;;23.31;72.09;98812.22;4956305;28;20045;-65
2023/08/02 11:29:25;;;;;;;1.70;0.68;;;;;;;23.43;72.05;98800.09;4957493;28;20043;-63
2023/08/02 11:31:54;;;;;;;2.50;0.75;;;;;;;23.41;72.93;98804.56;5021717;28;20042;-63